Danville, Virginia
Current Conditions -  °F | °C
As of 7:53 AM on Saturday 25 Oct 2014 (Local Time) from KDAN Reporting Station
Clear Clear  
Wind Chill: 34°   Ceiling: Unl
Heat Index: 38°   Visibility: 10mi
Dew Point: 36°   Wind: 5mph
Humidity: 93%   Direction: 230°SW
Pressure: 30.02"   Gusts: NA
Location:  36.59°N, 79.42°W
Report Text: KDAN 251153Z AUTO 23004KT 10SM CLR 03/02 A3002 RMK AO2 SLP162 T00330022 10061 20033 51010
Loading
Personal Weather Stations






























Interactive Weather Map
Tropical Storm Tracking
New forecast layout! Learn more

10-Day Weather Forecast

Advertisements
Track Severe Weather on mobile